createdAt,value
2018-05-31T00:02:06.878Z,19.80
2018-05-31T00:04:39.405Z,19.77
2018-05-31T00:07:11.948Z,19.74
2018-05-31T00:09:44.480Z,19.74
2018-05-31T00:12:17.031Z,19.67
2018-05-31T00:14:49.568Z,19.63
2018-05-31T00:17:22.934Z,19.65
2018-05-31T00:19:55.448Z,19.70
2018-05-31T00:22:27.994Z,19.72
2018-05-31T00:25:00.527Z,19.70
2018-05-31T00:27:33.068Z,19.66
2018-05-31T00:30:05.610Z,19.64
2018-05-31T00:32:38.157Z,19.61
2018-05-31T00:35:10.721Z,19.55
2018-05-31T00:37:43.287Z,19.50
2018-05-31T00:40:15.806Z,19.42
2018-05-31T00:42:48.354Z,19.31
2018-05-31T00:45:20.885Z,19.26
2018-05-31T00:47:53.425Z,19.21
2018-05-31T00:50:25.944Z,19.19
2018-05-31T00:52:58.497Z,19.19
2018-05-31T00:55:43.018Z,19.16
2018-05-31T00:58:15.523Z,19.13
2018-05-31T01:00:48.078Z,19.06
2018-05-31T01:03:22.213Z,19.07
2018-05-31T01:05:54.761Z,19.07
2018-05-31T01:08:27.277Z,19.07
2018-05-31T01:10:59.820Z,19.07
2018-05-31T01:13:32.329Z,19.03
2018-05-31T01:16:04.876Z,19.01
2018-05-31T01:18:37.401Z,19.00
2018-05-31T01:21:09.947Z,18.95
2018-05-31T01:23:42.482Z,18.93
2018-05-31T01:26:15.039Z,18.90
2018-05-31T01:28:47.564Z,18.89
2018-05-31T01:31:20.115Z,18.91
2018-05-31T01:33:53.233Z,18.89
2018-05-31T01:36:25.785Z,18.89
2018-05-31T01:38:58.320Z,18.86
2018-05-31T01:41:30.861Z,18.84
2018-05-31T01:44:03.385Z,18.79
2018-05-31T01:46:35.926Z,18.74
2018-05-31T01:49:08.458Z,18.69
2018-05-31T01:51:41.004Z,18.67
2018-05-31T01:54:13.545Z,18.69
2018-05-31T01:56:46.099Z,18.68
2018-05-31T01:59:18.616Z,18.68
2018-05-31T02:01:51.792Z,18.62
2018-05-31T02:04:24.312Z,18.55
2018-05-31T02:06:56.840Z,18.50
2018-05-31T02:09:29.354Z,18.47
2018-05-31T02:12:01.901Z,18.47
2018-05-31T02:14:34.442Z,18.44
2018-05-31T02:17:06.992Z,18.40
2018-05-31T02:19:39.512Z,18.37
2018-05-31T02:22:12.067Z,18.33
2018-05-31T02:24:44.596Z,18.31
2018-05-31T02:27:17.179Z,18.32
2018-05-31T02:29:49.718Z,18.25
2018-05-31T02:32:22.977Z,18.24
2018-05-31T02:34:55.507Z,18.28
2018-05-31T02:37:28.069Z,18.33
2018-05-31T02:40:00.594Z,18.31
2018-05-31T02:42:33.148Z,18.26
2018-05-31T02:45:05.682Z,18.23
2018-05-31T02:47:38.215Z,18.18
2018-05-31T02:50:10.790Z,18.15
2018-05-31T02:52:43.346Z,18.13
2018-05-31T02:55:15.865Z,18.16
2018-05-31T02:57:48.408Z,18.15
2018-05-31T03:00:20.958Z,18.15
2018-05-31T03:02:53.504Z,18.13
2018-05-31T03:05:26.019Z,18.12
2018-05-31T03:07:58.560Z,18.12
2018-05-31T03:10:31.078Z,18.09
2018-05-31T03:13:04.519Z,18.07
2018-05-31T03:15:37.045Z,18.07
2018-05-31T03:18:09.593Z,18.04
2018-05-31T03:20:42.124Z,18.04
2018-05-31T03:23:14.666Z,17.98
2018-05-31T03:25:47.188Z,17.97
2018-05-31T03:28:19.739Z,17.93
2018-05-31T03:30:52.996Z,17.92
2018-05-31T03:33:25.539Z,17.92
2018-05-31T03:35:58.051Z,17.96
2018-05-31T03:38:30.595Z,17.95
2018-05-31T03:41:03.121Z,17.93
2018-05-31T03:43:35.665Z,17.89
2018-05-31T03:46:08.176Z,17.86
2018-05-31T03:48:40.720Z,17.87
2018-05-31T03:51:13.234Z,17.88
2018-05-31T03:53:45.772Z,17.92
2018-05-31T03:56:26.647Z,17.92
2018-05-31T03:58:59.196Z,17.94
2018-05-31T04:01:31.768Z,17.93
2018-05-31T04:04:04.284Z,18.00
2018-05-31T04:06:36.815Z,18.07
2018-05-31T04:09:09.349Z,18.10
2018-05-31T04:11:41.879Z,18.16
2018-05-31T04:14:14.417Z,18.19
2018-05-31T04:16:46.950Z,18.28
2018-05-31T04:19:19.489Z,18.36
2018-05-31T04:21:52.008Z,18.43
2018-05-31T04:24:24.543Z,18.49
2018-05-31T04:26:57.155Z,18.62
2018-05-31T04:29:29.700Z,18.74
2018-05-31T04:32:02.224Z,18.87
2018-05-31T04:34:34.768Z,19.00
2018-05-31T04:37:07.296Z,19.14
2018-05-31T04:39:39.824Z,19.22
2018-05-31T04:42:12.367Z,19.32
2018-05-31T04:44:44.901Z,19.39
2018-05-31T04:47:17.520Z,19.48
2018-05-31T04:49:50.040Z,19.59
2018-05-31T04:52:23.152Z,19.77
2018-05-31T04:54:55.676Z,19.91
2018-05-31T04:57:28.215Z,20.03
2018-05-31T05:00:00.748Z,20.17
2018-05-31T05:02:33.309Z,20.29
2018-05-31T05:05:05.836Z,20.42
2018-05-31T05:07:38.377Z,20.57
2018-05-31T05:10:10.920Z,20.68
2018-05-31T05:12:43.460Z,20.82
2018-05-31T05:15:15.973Z,20.93
2018-05-31T05:17:48.512Z,21.08
2018-05-31T05:20:21.282Z,21.21
2018-05-31T05:22:53.829Z,21.34
2018-05-31T05:25:26.363Z,21.46
2018-05-31T05:27:58.925Z,21.53
2018-05-31T05:30:31.437Z,21.59
2018-05-31T05:33:03.975Z,21.68
2018-05-31T05:35:36.505Z,21.74
2018-05-31T05:38:09.067Z,21.85
2018-05-31T05:40:41.593Z,21.92
2018-05-31T05:43:14.131Z,22.01
2018-05-31T05:45:46.645Z,22.11
2018-05-31T05:48:19.200Z,22.34
2018-05-31T05:50:52.188Z,22.35
2018-05-31T05:53:24.727Z,22.49
2018-05-31T05:55:57.258Z,22.66
2018-05-31T05:58:29.812Z,22.83
2018-05-31T06:01:02.381Z,22.87
2018-05-31T06:03:34.930Z,22.92
2018-05-31T06:06:07.461Z,23.03
2018-05-31T06:08:40.032Z,23.11
2018-05-31T06:11:12.580Z,23.14
2018-05-31T06:13:45.115Z,23.25
2018-05-31T06:16:17.650Z,23.30
2018-05-31T06:18:50.206Z,23.45
2018-05-31T06:21:23.572Z,23.69
2018-05-31T06:23:56.120Z,23.87
2018-05-31T06:26:28.701Z,24.02
2018-05-31T06:29:01.235Z,24.08
2018-05-31T06:31:33.790Z,24.14
2018-05-31T06:34:06.328Z,24.24
2018-05-31T06:36:38.870Z,24.38
2018-05-31T06:39:11.402Z,24.52
2018-05-31T06:41:43.919Z,24.54
2018-05-31T06:44:16.464Z,24.53
2018-05-31T06:46:48.984Z,24.60
2018-05-31T06:49:22.713Z,24.67
2018-05-31T06:51:55.224Z,24.77
2018-05-31T06:54:27.758Z,24.86
2018-05-31T06:57:00.296Z,25.06
2018-05-31T06:59:32.835Z,25.13
2018-05-31T07:02:05.340Z,25.14
2018-05-31T07:04:37.865Z,25.15
2018-05-31T07:07:10.402Z,25.22
2018-05-31T07:09:42.924Z,25.22
2018-05-31T07:12:15.429Z,25.20
2018-05-31T07:14:47.948Z,25.45
2018-05-31T07:17:21.307Z,25.54
2018-05-31T07:19:53.844Z,25.66
2018-05-31T07:22:26.349Z,25.70
2018-05-31T07:24:58.913Z,25.71
2018-05-31T07:27:31.429Z,25.72
2018-05-31T07:30:03.953Z,25.77
2018-05-31T07:32:36.465Z,25.88
2018-05-31T07:35:09.001Z,25.96
2018-05-31T07:37:41.537Z,26.17
2018-05-31T07:40:14.069Z,26.16
2018-05-31T07:42:46.576Z,26.23
2018-05-31T07:45:19.103Z,26.20
2018-05-31T07:47:51.978Z,26.30
2018-05-31T07:50:24.505Z,26.36
2018-05-31T07:52:57.013Z,26.47
2018-05-31T07:55:29.540Z,26.67
2018-05-31T07:58:02.102Z,26.47
2018-05-31T08:00:34.633Z,26.54
2018-05-31T08:03:07.148Z,26.41
2018-05-31T08:05:39.709Z,26.62
2018-05-31T08:08:13.061Z,26.68
2018-05-31T08:10:45.599Z,26.74
2018-05-31T08:13:18.144Z,26.82
2018-05-31T08:15:50.905Z,26.93
2018-05-31T08:18:23.443Z,26.99
2018-05-31T08:20:55.951Z,27.12
2018-05-31T08:23:28.484Z,27.28
2018-05-31T08:26:00.990Z,27.28
2018-05-31T08:28:33.522Z,27.46
2018-05-31T08:31:06.039Z,27.64
2018-05-31T08:33:38.584Z,27.91
2018-05-31T08:36:11.127Z,28.27
2018-05-31T08:38:43.652Z,28.66
2018-05-31T08:41:16.171Z,28.84
2018-05-31T08:43:48.711Z,29.03
2018-05-31T08:46:21.743Z,29.21
2018-05-31T08:48:54.272Z,29.20
2018-05-31T08:51:26.789Z,28.81
2018-05-31T08:53:59.325Z,28.67
2018-05-31T08:56:31.840Z,28.40
2018-05-31T08:59:04.365Z,28.33
2018-05-31T09:01:36.878Z,28.36
2018-05-31T09:04:09.424Z,28.59
2018-05-31T09:06:41.944Z,28.74
2018-05-31T09:09:14.549Z,28.97
2018-05-31T09:11:47.056Z,29.09
2018-05-31T09:14:19.575Z,29.10
2018-05-31T09:16:52.800Z,29.15
2018-05-31T09:19:25.327Z,29.20
2018-05-31T09:21:57.845Z,29.23
2018-05-31T09:24:30.376Z,29.26
2018-05-31T09:27:02.902Z,29.31
2018-05-31T09:29:35.439Z,29.31
2018-05-31T09:32:08.174Z,29.16
2018-05-31T09:34:40.699Z,29.20
2018-05-31T09:37:13.202Z,29.32
2018-05-31T09:39:45.722Z,29.25
2018-05-31T09:42:18.227Z,29.20
2018-05-31T09:44:51.381Z,29.27
2018-05-31T09:47:23.883Z,29.37
2018-05-31T09:49:56.408Z,29.43
2018-05-31T09:52:28.912Z,29.57
2018-05-31T09:55:01.432Z,29.60
2018-05-31T09:57:33.957Z,29.69
2018-05-31T10:00:06.483Z,29.83
2018-05-31T10:02:38.988Z,29.97
2018-05-31T10:05:11.569Z,29.87
2018-05-31T10:07:44.078Z,29.77
2018-05-31T10:10:16.613Z,29.66
2018-05-31T10:12:49.179Z,29.60
2018-05-31T10:15:22.024Z,29.73
2018-05-31T10:17:54.531Z,29.86
2018-05-31T10:20:27.072Z,30.07
2018-05-31T10:22:59.585Z,30.29
2018-05-31T10:25:32.115Z,30.15
2018-05-31T10:28:04.629Z,30.14
2018-05-31T10:30:37.149Z,30.07
2018-05-31T10:33:09.657Z,29.99
2018-05-31T10:35:42.196Z,30.19
2018-05-31T10:38:14.693Z,30.29
2018-05-31T10:40:47.208Z,30.37
2018-05-31T10:43:19.710Z,30.19
2018-05-31T10:45:52.941Z,30.25
2018-05-31T10:48:25.453Z,30.34
2018-05-31T10:50:57.975Z,30.62
2018-05-31T10:53:30.480Z,30.88
2018-05-31T10:56:03.004Z,30.88
2018-05-31T10:58:35.524Z,30.86
2018-05-31T11:01:08.048Z,30.92
2018-05-31T11:03:40.599Z,30.81
2018-05-31T11:06:13.136Z,30.79
2018-05-31T11:08:45.645Z,30.76
2018-05-31T11:11:18.456Z,30.84
2018-05-31T11:13:50.965Z,31.06
2018-05-31T11:16:23.507Z,31.56
2018-05-31T11:18:56.014Z,31.68
2018-05-31T11:21:28.567Z,31.52
2018-05-31T11:24:01.113Z,31.44
2018-05-31T11:26:33.648Z,31.46
2018-05-31T11:29:06.148Z,31.39
2018-05-31T11:31:38.668Z,31.28
2018-05-31T11:34:11.178Z,31.28
2018-05-31T11:36:43.713Z,31.54
2018-05-31T11:39:16.212Z,31.40
2018-05-31T11:41:48.745Z,31.33
2018-05-31T11:44:21.788Z,31.51
2018-05-31T11:46:54.309Z,31.77
2018-05-31T11:49:26.848Z,31.95
2018-05-31T11:51:59.381Z,31.74
2018-05-31T11:54:31.896Z,31.49
2018-05-31T11:57:04.405Z,31.45
2018-05-31T11:59:36.927Z,31.38
2018-05-31T12:02:09.427Z,31.27
2018-05-31T12:04:41.944Z,31.31
2018-05-31T12:07:14.445Z,31.28
2018-05-31T12:09:46.980Z,31.28
2018-05-31T12:12:19.499Z,31.33
2018-05-31T12:14:52.040Z,31.25
2018-05-31T12:17:24.630Z,31.09
2018-05-31T12:19:57.101Z,31.07
2018-05-31T12:22:29.623Z,31.16
2018-05-31T12:25:02.157Z,31.24
2018-05-31T12:27:34.663Z,31.32
2018-05-31T12:30:07.185Z,31.18
2018-05-31T12:32:39.692Z,31.12
2018-05-31T12:35:12.219Z,31.17
2018-05-31T12:37:44.731Z,31.23
2018-05-31T12:40:17.279Z,31.28
2018-05-31T12:42:49.784Z,31.37
2018-05-31T12:45:23.095Z,31.38
2018-05-31T12:47:55.628Z,31.50
2018-05-31T12:50:28.154Z,31.52
2018-05-31T12:53:00.652Z,31.46
2018-05-31T12:55:33.188Z,31.44
2018-05-31T12:58:05.686Z,31.51
2018-05-31T13:00:38.203Z,31.58
2018-05-31T13:03:10.725Z,31.51
2018-05-31T13:05:43.263Z,31.57
2018-05-31T13:08:15.764Z,31.58
2018-05-31T13:10:48.291Z,31.72
2018-05-31T13:13:22.039Z,31.84
2018-05-31T13:15:56.732Z,31.57
2018-05-31T13:18:29.300Z,31.35
2018-05-31T13:21:01.834Z,31.48
2018-05-31T13:23:34.350Z,31.56
2018-05-31T13:26:06.873Z,31.57
2018-05-31T13:28:39.384Z,31.43
2018-05-31T13:31:11.918Z,31.39
2018-05-31T13:33:44.435Z,31.53
2018-05-31T13:36:16.960Z,31.60
2018-05-31T13:38:49.466Z,31.61
2018-05-31T13:41:21.983Z,31.82
2018-05-31T13:43:54.497Z,31.79
2018-05-31T13:46:27.040Z,31.91
2018-05-31T13:48:59.722Z,31.88
2018-05-31T13:51:32.262Z,31.80
2018-05-31T13:54:04.758Z,31.80
2018-05-31T13:56:37.282Z,31.87
2018-05-31T13:59:09.787Z,31.78
2018-05-31T14:01:42.319Z,31.78
2018-05-31T14:04:14.821Z,31.80
2018-05-31T14:06:47.347Z,31.71
2018-05-31T14:09:19.952Z,31.83
2018-05-31T14:11:53.061Z,31.92
2018-05-31T14:14:25.568Z,31.76
2018-05-31T14:16:58.091Z,31.88
2018-05-31T14:19:30.605Z,31.91
2018-05-31T14:22:03.128Z,31.98
2018-05-31T14:24:35.632Z,31.95
2018-05-31T14:27:08.147Z,31.90
2018-05-31T14:29:40.636Z,31.77
2018-05-31T14:32:13.152Z,31.70
2018-05-31T14:34:45.658Z,31.75
2018-05-31T14:37:18.186Z,31.80
2018-05-31T14:39:50.974Z,31.77
2018-05-31T14:42:23.519Z,31.78
2018-05-31T14:44:56.028Z,31.76
2018-05-31T14:47:28.575Z,31.73
2018-05-31T14:50:01.081Z,31.70
2018-05-31T14:52:33.607Z,31.54
2018-05-31T14:55:06.120Z,31.68
2018-05-31T14:57:38.642Z,31.68
2018-05-31T15:00:11.179Z,31.57
2018-05-31T15:02:43.716Z,31.51
2018-05-31T15:05:16.221Z,31.40
2018-05-31T15:07:48.754Z,31.21
2018-05-31T15:10:21.923Z,31.02
2018-05-31T15:12:54.479Z,30.99
2018-05-31T15:15:27.004Z,30.93
2018-05-31T15:17:59.550Z,30.88
2018-05-31T15:20:32.071Z,30.71
2018-05-31T15:23:04.578Z,30.65
2018-05-31T15:25:37.123Z,30.51
2018-05-31T15:28:09.637Z,30.52
2018-05-31T15:30:42.167Z,30.40
2018-05-31T15:33:14.672Z,30.33
2018-05-31T15:35:47.223Z,30.20
2018-05-31T15:38:19.724Z,30.07
2018-05-31T15:40:52.877Z,29.98
2018-05-31T15:43:25.410Z,29.93
2018-05-31T15:45:57.936Z,29.91
2018-05-31T15:48:30.433Z,29.86
2018-05-31T15:51:02.956Z,29.85
2018-05-31T15:53:35.470Z,29.77
2018-05-31T15:56:08.005Z,29.74
2018-05-31T15:58:40.598Z,29.71
2018-05-31T16:01:13.153Z,29.70
2018-05-31T16:03:45.670Z,29.68
2018-05-31T16:06:18.194Z,29.68
2018-05-31T16:08:50.963Z,29.65
2018-05-31T16:11:23.502Z,29.66
2018-05-31T16:13:56.008Z,29.69
2018-05-31T16:16:28.533Z,29.77
2018-05-31T16:19:01.049Z,29.75
2018-05-31T16:21:33.580Z,29.70
2018-05-31T16:24:06.081Z,29.63
2018-05-31T16:26:38.614Z,29.51
2018-05-31T16:29:11.139Z,29.50
2018-05-31T16:31:43.660Z,29.48
2018-05-31T16:34:16.380Z,29.45
2018-05-31T16:36:48.938Z,29.40
2018-05-31T16:39:22.300Z,29.36
2018-05-31T16:41:54.824Z,29.36
2018-05-31T16:44:27.338Z,29.36
2018-05-31T16:46:59.867Z,29.32
2018-05-31T16:49:32.374Z,29.29
2018-05-31T16:52:04.904Z,29.24
2018-05-31T16:54:37.454Z,29.18
2018-05-31T16:57:09.976Z,29.10
2018-05-31T16:59:42.479Z,29.04
2018-05-31T17:02:15.011Z,29.00
2018-05-31T17:04:47.553Z,28.95
2018-05-31T17:07:20.071Z,28.90
2018-05-31T17:09:53.128Z,28.85
2018-05-31T17:12:25.660Z,28.82
2018-05-31T17:14:58.569Z,28.76
2018-05-31T17:17:31.155Z,28.77
2018-05-31T17:20:03.790Z,28.77
2018-05-31T17:22:36.563Z,28.82
2018-05-31T17:25:09.275Z,28.79
2018-05-31T17:27:41.934Z,28.73
2018-05-31T17:30:14.664Z,28.71
2018-05-31T17:32:47.325Z,28.65
2018-05-31T17:35:19.975Z,28.60
2018-05-31T17:37:53.701Z,28.54
2018-05-31T17:40:26.566Z,28.47
2018-05-31T17:42:59.399Z,28.39
2018-05-31T17:45:32.022Z,28.34
2018-05-31T17:48:04.797Z,28.27
2018-05-31T17:50:37.592Z,28.22
2018-05-31T17:53:10.284Z,28.18
2018-05-31T17:55:42.925Z,28.13
2018-05-31T17:58:15.657Z,28.06
2018-05-31T18:00:48.738Z,27.97
2018-05-31T18:03:21.784Z,27.90
2018-05-31T18:05:54.352Z,27.84
2018-05-31T18:08:27.454Z,27.79
2018-05-31T18:11:00.237Z,27.71
2018-05-31T18:13:33.011Z,27.62
2018-05-31T18:16:05.869Z,27.56
2018-05-31T18:18:38.567Z,27.49
2018-05-31T18:21:11.235Z,27.40
2018-05-31T18:23:43.891Z,27.34
2018-05-31T18:26:16.547Z,27.25
2018-05-31T18:28:49.428Z,27.20
2018-05-31T18:31:22.142Z,27.16
2018-05-31T18:33:54.922Z,27.01
2018-05-31T18:36:27.562Z,26.91
2018-05-31T18:39:01.309Z,26.86
2018-05-31T18:41:34.059Z,26.77
2018-05-31T18:44:06.625Z,26.69
2018-05-31T18:46:39.261Z,26.59
2018-05-31T18:49:11.886Z,26.51
2018-05-31T18:51:44.420Z,26.46
2018-05-31T18:54:16.926Z,26.40
2018-05-31T18:56:49.458Z,26.32
2018-05-31T18:59:21.971Z,26.24
2018-05-31T19:01:54.496Z,26.14
2018-05-31T19:04:27.004Z,26.08
2018-05-31T19:06:59.590Z,26.01
2018-05-31T19:09:36.912Z,25.95
2018-05-31T19:12:09.478Z,25.89
2018-05-31T19:14:42.025Z,25.82
2018-05-31T19:17:14.556Z,25.75
2018-05-31T19:19:52.656Z,25.68
2018-05-31T19:22:25.182Z,25.64
2018-05-31T19:25:03.236Z,25.56
2018-05-31T19:27:35.756Z,25.51
2018-05-31T19:30:13.967Z,25.45
2018-05-31T19:32:46.505Z,25.37
2018-05-31T19:35:24.503Z,25.34
2018-05-31T19:37:57.037Z,25.24
2018-05-31T19:40:29.545Z,25.19
2018-05-31T19:43:07.608Z,25.14
2018-05-31T19:45:40.173Z,25.10
2018-05-31T19:48:12.700Z,25.04
2018-05-31T19:50:45.214Z,24.99
2018-05-31T19:53:23.351Z,24.95
2018-05-31T19:55:56.069Z,24.91
2018-05-31T19:58:34.377Z,24.86
2018-05-31T20:01:12.662Z,24.81
2018-05-31T20:03:45.224Z,24.74
2018-05-31T20:06:17.776Z,24.71
2018-05-31T20:08:50.326Z,24.64
2018-05-31T20:11:23.910Z,24.58
2018-05-31T20:13:56.432Z,24.51
2018-05-31T20:16:28.938Z,24.47
2018-05-31T20:19:01.534Z,24.40
2018-05-31T20:21:34.011Z,24.35
2018-05-31T20:24:06.712Z,24.31
2018-05-31T20:26:39.229Z,24.26
2018-05-31T20:29:11.764Z,24.23
2018-05-31T20:31:44.279Z,24.20
2018-05-31T20:34:16.826Z,24.16
2018-05-31T20:36:49.343Z,24.13
2018-05-31T20:39:21.875Z,24.11
2018-05-31T20:41:54.388Z,24.07
2018-05-31T20:44:26.912Z,24.02
2018-05-31T20:46:59.421Z,23.99
2018-05-31T20:49:31.956Z,23.93
2018-05-31T20:52:04.460Z,23.91
2018-05-31T20:54:36.992Z,23.85
2018-05-31T20:57:09.504Z,23.76
2018-05-31T20:59:42.032Z,23.70
2018-05-31T21:02:14.533Z,23.65
2018-05-31T21:04:47.062Z,23.56
2018-05-31T21:07:19.571Z,23.54
2018-05-31T21:09:52.982Z,23.54
2018-05-31T21:12:25.489Z,23.53
2018-05-31T21:14:58.024Z,23.50
2018-05-31T21:17:30.538Z,23.45
2018-05-31T21:20:03.128Z,23.38
2018-05-31T21:22:35.640Z,23.34
2018-05-31T21:25:08.180Z,23.31
2018-05-31T21:27:40.711Z,23.29
2018-05-31T21:30:13.233Z,23.27
2018-05-31T21:32:45.765Z,23.23
2018-05-31T21:35:18.272Z,23.20
2018-05-31T21:37:50.928Z,23.19
2018-05-31T21:40:23.448Z,23.13
2018-05-31T21:42:55.969Z,23.09
2018-05-31T21:45:28.484Z,23.07
2018-05-31T21:48:01.017Z,23.05
2018-05-31T21:50:33.528Z,23.02
2018-05-31T21:53:06.053Z,23.00
2018-05-31T21:55:38.567Z,22.97
2018-05-31T21:58:11.100Z,22.94
2018-05-31T22:00:49.154Z,22.90
2018-05-31T22:03:21.937Z,22.85
2018-05-31T22:05:54.444Z,22.82
2018-05-31T22:08:26.985Z,22.82
2018-05-31T22:10:59.492Z,22.80
2018-05-31T22:13:32.032Z,22.75
2018-05-31T22:16:04.534Z,22.73
2018-05-31T22:18:37.062Z,22.69
2018-05-31T22:21:09.569Z,22.67
2018-05-31T22:23:42.096Z,22.65
2018-05-31T22:26:14.598Z,22.62
2018-05-31T22:28:47.124Z,22.57
2018-05-31T22:31:19.629Z,22.53
2018-05-31T22:33:52.944Z,22.51
2018-05-31T22:36:25.494Z,22.51
2018-05-31T22:38:58.071Z,22.48
2018-05-31T22:41:30.632Z,22.50
2018-05-31T22:44:03.161Z,22.47
2018-05-31T22:46:35.726Z,22.44
2018-05-31T22:49:08.336Z,22.42
2018-05-31T22:51:40.903Z,22.41
2018-05-31T22:54:13.453Z,22.38
2018-05-31T22:56:46.014Z,22.36
2018-05-31T22:59:18.547Z,22.32
2018-05-31T23:01:51.652Z,22.30
2018-05-31T23:04:24.186Z,22.28
2018-05-31T23:06:56.688Z,22.24
2018-05-31T23:09:29.215Z,22.20
2018-05-31T23:12:01.735Z,22.15
2018-05-31T23:14:34.270Z,22.14
2018-05-31T23:17:06.788Z,22.11
2018-05-31T23:19:39.322Z,22.11
2018-05-31T23:22:11.844Z,22.10
2018-05-31T23:24:44.367Z,22.09
2018-05-31T23:27:16.873Z,22.08
2018-05-31T23:29:49.409Z,22.07
2018-05-31T23:32:21.933Z,22.01
2018-05-31T23:34:54.463Z,21.96
2018-05-31T23:37:26.971Z,21.90
2018-05-31T23:39:59.496Z,21.87
2018-05-31T23:42:31.996Z,21.85
2018-05-31T23:45:04.532Z,21.84
2018-05-31T23:47:37.049Z,21.82
2018-05-31T23:50:09.579Z,21.82
2018-05-31T23:52:42.090Z,21.79
2018-05-31T23:55:14.622Z,21.76
2018-05-31T23:57:47.128Z,21.75
